createdAt,value
2018-11-04T00:02:41.189Z,25.97
2018-11-04T00:06:45.136Z,27.43
2018-11-04T00:10:49.280Z,29.20
2018-11-04T00:14:53.218Z,30.97
2018-11-04T00:18:57.365Z,26.67
2018-11-04T00:23:01.309Z,28.13
2018-11-04T00:27:05.695Z,26.00
2018-11-04T00:31:09.904Z,31.27
2018-11-04T00:35:13.756Z,25.37
2018-11-04T00:39:18.304Z,24.02
2018-11-04T00:43:22.196Z,30.90
2018-11-04T00:47:27.520Z,29.63
2018-11-04T00:51:31.420Z,29.27
2018-11-04T00:55:35.271Z,26.33
2018-11-04T00:59:40.864Z,23.87
2018-11-04T01:03:45.281Z,26.63
2018-11-04T01:07:49.671Z,28.87
2018-11-04T01:11:54.329Z,31.10
2018-11-04T01:15:58.659Z,30.30
2018-11-04T01:20:02.868Z,25.80
2018-11-04T01:24:07.136Z,26.90
2018-11-04T01:28:11.553Z,30.80
2018-11-04T01:32:17.274Z,28.67
2018-11-04T01:36:22.053Z,31.37
2018-11-04T01:40:26.276Z,29.67
2018-11-04T01:44:31.223Z,28.30
2018-11-04T01:48:35.560Z,32.20
2018-11-04T01:52:39.924Z,29.83
2018-11-04T01:56:44.363Z,28.47
2018-11-04T02:00:48.993Z,27.07
2018-11-04T02:04:53.224Z,27.80
2018-11-04T02:08:58.033Z,25.00
2018-11-04T02:13:02.382Z,26.35
2018-11-04T02:17:06.536Z,31.20
2018-11-04T02:21:10.667Z,34.88
2018-11-04T02:25:15.097Z,29.92
2018-11-04T02:29:19.364Z,32.37
2018-11-04T02:33:24.067Z,32.77
2018-11-04T02:37:28.145Z,29.50
2018-11-04T02:41:32.519Z,24.53
2018-11-04T02:45:36.640Z,23.75
2018-11-04T02:49:41.781Z,25.53
2018-11-04T02:53:45.920Z,22.73
2018-11-04T02:57:50.510Z,27.03
2018-11-04T03:01:54.664Z,26.77
2018-11-04T03:05:58.701Z,30.47
2018-11-04T03:10:02.998Z,27.57
2018-11-04T03:14:07.127Z,27.45
2018-11-04T03:18:11.486Z,24.67
2018-11-04T03:22:15.872Z,24.87
2018-11-04T03:26:20.101Z,19.95
2018-11-04T03:30:24.293Z,24.87
2018-11-04T03:34:28.721Z,29.50
2018-11-04T03:38:32.795Z,27.90
2018-11-04T03:42:36.869Z,25.60
2018-11-04T03:46:41.168Z,22.33
2018-11-04T03:50:45.809Z,25.17
2018-11-04T03:54:50.285Z,23.73
2018-11-04T03:58:55.146Z,27.57
2018-11-04T04:02:59.773Z,27.55
2018-11-04T04:07:05.579Z,27.58
2018-11-04T04:11:09.949Z,26.40
2018-11-04T04:15:15.480Z,24.52
2018-11-04T04:19:19.572Z,25.80
2018-11-04T04:23:23.611Z,26.10
2018-11-04T04:27:27.939Z,22.80
2018-11-04T04:31:32.382Z,28.80
2018-11-04T04:35:36.530Z,27.53
2018-11-04T04:39:40.998Z,27.33
2018-11-04T04:43:45.027Z,26.20
2018-11-04T04:47:49.089Z,27.75
2018-11-04T04:51:53.136Z,29.32
2018-11-04T04:55:58.050Z,29.27
2018-11-04T05:00:02.135Z,31.63
2018-11-04T05:04:06.290Z,26.00
2018-11-04T05:08:10.941Z,29.52
2018-11-04T05:12:15.025Z,25.53
2018-11-04T05:16:19.160Z,24.13
2018-11-04T05:20:23.390Z,23.77
2018-11-04T05:24:27.896Z,26.93
2018-11-04T05:28:31.935Z,27.97
2018-11-04T05:32:35.972Z,29.17
2018-11-04T05:36:39.953Z,28.00
2018-11-04T05:40:43.981Z,30.00
2018-11-04T05:44:47.984Z,28.23
2018-11-04T05:48:51.985Z,24.63
2018-11-04T05:52:56.646Z,26.30
2018-11-04T05:57:00.690Z,27.67
2018-11-04T06:01:05.856Z,25.37
2018-11-04T06:05:11.133Z,26.42
2018-11-04T06:09:15.029Z,25.33
2018-11-04T06:13:18.912Z,19.43
2018-11-04T06:17:23.225Z,22.93
2018-11-04T06:21:27.065Z,21.07
2018-11-04T06:25:31.184Z,18.07
2018-11-04T06:29:35.323Z,20.27
2018-11-04T06:33:39.583Z,23.63
2018-11-04T06:37:43.644Z,20.37
2018-11-04T06:41:47.667Z,22.60
2018-11-04T06:45:51.954Z,29.87
2018-11-04T06:49:56.261Z,21.80
2018-11-04T06:54:00.375Z,23.20
2018-11-04T06:58:05.396Z,29.07
2018-11-04T07:02:09.726Z,33.13
2018-11-04T07:06:13.934Z,28.73
2018-11-04T07:10:18.321Z,33.03
2018-11-04T07:14:22.591Z,30.90
2018-11-04T07:18:27.117Z,32.23
2018-11-04T07:22:31.276Z,29.02
2018-11-04T07:26:36.053Z,28.33
2018-11-04T07:30:40.040Z,34.20
2018-11-04T07:34:44.054Z,35.97
2018-11-04T07:38:48.024Z,30.13
2018-11-04T07:42:52.277Z,34.63
2018-11-04T07:46:56.446Z,35.67
2018-11-04T07:51:00.886Z,25.17
2018-11-04T07:55:08.231Z,31.30
2018-11-04T07:59:12.574Z,29.33
2018-11-04T08:03:16.771Z,25.17
2018-11-04T08:07:20.776Z,24.37
2018-11-04T08:11:24.728Z,25.40
2018-11-04T08:15:29.263Z,28.80
2018-11-04T08:19:33.349Z,29.17
2018-11-04T08:23:37.747Z,28.17
2018-11-04T08:27:41.888Z,28.50
2018-11-04T08:31:46.773Z,22.87
2018-11-04T08:35:50.813Z,27.77
2018-11-04T08:39:55.247Z,27.37
2018-11-04T08:44:00.421Z,22.57
2018-11-04T08:48:05.394Z,22.22
2018-11-04T08:52:09.368Z,25.67
2018-11-04T08:56:13.326Z,23.75
2018-11-04T09:00:17.433Z,25.87
2018-11-04T09:04:21.731Z,25.70
2018-11-04T09:08:26.641Z,25.33
2018-11-04T09:12:30.644Z,25.27
2018-11-04T09:16:34.625Z,22.80
2018-11-04T09:20:38.592Z,20.20
2018-11-04T09:24:42.566Z,19.63
2018-11-04T09:28:46.670Z,17.73
2018-11-04T09:32:50.648Z,18.40
2018-11-04T09:36:54.719Z,18.87
2018-11-04T09:40:58.800Z,19.93
2018-11-04T09:45:02.883Z,19.07
2018-11-04T09:49:07.256Z,18.20
2018-11-04T09:53:11.363Z,19.50
2018-11-04T09:57:15.792Z,18.98
2018-11-04T10:01:19.862Z,17.57
2018-11-04T10:05:28.554Z,19.40
2018-11-04T10:09:34.463Z,19.37
2018-11-04T10:13:40.087Z,19.70
2018-11-04T10:17:46.211Z,19.73
2018-11-04T10:21:52.607Z,20.70
2018-11-04T10:25:57.359Z,17.87
2018-11-04T10:30:01.286Z,17.53
2018-11-04T10:34:05.643Z,17.03
2018-11-04T10:38:09.757Z,19.03
2018-11-04T10:42:15.447Z,17.07
2018-11-04T10:46:20.687Z,17.93
2018-11-04T10:50:24.897Z,19.10
2018-11-04T10:54:29.792Z,17.65
2018-11-04T10:58:35.420Z,20.05
2018-11-04T11:02:40.042Z,19.73
2018-11-04T11:06:45.146Z,18.35
2018-11-04T11:10:49.073Z,16.87
2018-11-04T11:14:52.979Z,19.85
2018-11-04T11:18:56.886Z,18.55
2018-11-04T11:23:01.093Z,17.23
2018-11-04T11:27:05.419Z,20.17
2018-11-04T11:31:09.336Z,17.77
2018-11-04T11:35:13.213Z,21.48
2018-11-04T11:39:17.400Z,19.13
2018-11-04T11:43:21.290Z,19.32
2018-11-04T11:47:25.996Z,18.57
2018-11-04T11:51:32.383Z,21.30
2018-11-04T11:55:36.768Z,18.70
2018-11-04T11:59:43.117Z,19.00
2018-11-04T12:03:48.644Z,21.45
2018-11-04T12:07:52.594Z,22.43
2018-11-04T12:11:57.230Z,17.72
2018-11-04T12:16:01.207Z,18.87
2018-11-04T12:20:07.524Z,23.00
2018-11-04T12:24:11.511Z,22.47
2018-11-04T12:28:15.478Z,19.10
2018-11-04T12:32:19.991Z,20.30
2018-11-04T12:36:23.859Z,20.67
2018-11-04T12:40:27.787Z,19.30
2018-11-04T12:44:31.853Z,22.40
2018-11-04T12:48:36.536Z,19.30
2018-11-04T12:52:41.047Z,19.23
2018-11-04T12:56:44.936Z,18.23
2018-11-04T13:00:48.814Z,23.17
2018-11-04T13:04:52.821Z,21.55
2018-11-04T13:08:56.696Z,20.08
2018-11-04T13:13:00.612Z,20.70
2018-11-04T13:17:04.952Z,23.77
2018-11-04T13:21:09.094Z,20.17
2018-11-04T13:25:12.982Z,23.35
2018-11-04T13:29:16.941Z,21.77
2018-11-04T13:33:20.967Z,22.53
2018-11-04T13:37:25.195Z,21.12
2018-11-04T13:41:29.092Z,22.13
2018-11-04T13:45:33.984Z,22.95
2018-11-04T13:49:38.436Z,23.25
2018-11-04T13:53:42.563Z,21.57
2018-11-04T13:57:46.431Z,23.45
2018-11-04T14:01:50.484Z,23.62
2018-11-04T14:05:54.389Z,24.67
2018-11-04T14:09:58.588Z,23.83
2018-11-04T14:14:03.289Z,24.10
2018-11-04T14:18:07.200Z,24.33
2018-11-04T14:22:11.764Z,25.02
2018-11-04T14:26:15.671Z,23.93
2018-11-04T14:30:19.716Z,24.60
2018-11-04T14:34:23.572Z,27.30
2018-11-04T14:38:27.812Z,27.67
2018-11-04T14:42:31.842Z,25.00
2018-11-04T14:46:36.184Z,26.23
2018-11-04T14:50:40.029Z,25.03
2018-11-04T14:54:44.022Z,27.90
2018-11-04T14:58:48.294Z,24.92
2018-11-04T15:02:52.112Z,26.03
2018-11-04T15:06:56.032Z,26.63
2018-11-04T15:10:59.948Z,25.13
2018-11-04T15:15:08.286Z,27.27
2018-11-04T15:19:12.230Z,26.65
2018-11-04T15:23:16.079Z,26.57
2018-11-04T15:27:19.980Z,29.35
2018-11-04T15:31:23.918Z,29.90
2018-11-04T15:35:28.112Z,29.13
2018-11-04T15:39:31.988Z,29.13
2018-11-04T15:43:35.872Z,27.50
2018-11-04T15:47:40.195Z,29.20
2018-11-04T15:51:44.158Z,27.90
2018-11-04T15:55:48.291Z,30.43
2018-11-04T15:59:52.162Z,29.00
2018-11-04T16:03:56.046Z,30.17
2018-11-04T16:07:59.999Z,30.17
2018-11-04T16:12:03.860Z,29.67
2018-11-04T16:16:07.770Z,31.10
2018-11-04T16:20:13.053Z,34.20
2018-11-04T16:24:16.969Z,34.60
2018-11-04T16:28:21.097Z,35.15
2018-11-04T16:32:25.016Z,32.53
2018-11-04T16:36:29.318Z,42.73
2018-11-04T16:40:33.262Z,75.77
2018-11-04T16:44:37.251Z,35.63
2018-11-04T16:48:41.091Z,37.87
2018-11-04T16:52:45.850Z,38.87
2018-11-04T16:56:49.752Z,35.70
2018-11-04T17:00:54.020Z,42.90
2018-11-04T17:04:57.992Z,36.70
2018-11-04T17:09:03.306Z,33.73
2018-11-04T17:13:07.265Z,36.53
2018-11-04T17:17:11.583Z,36.80
2018-11-04T17:21:15.450Z,37.20
2018-11-04T17:25:24.039Z,39.95
2018-11-04T17:29:31.050Z,36.07
2018-11-04T17:33:35.387Z,36.97
2018-11-04T17:37:40.421Z,38.53
2018-11-04T17:41:44.502Z,45.50
2018-11-04T17:45:48.680Z,37.97
2018-11-04T17:49:52.856Z,60.03
2018-11-04T17:53:56.775Z,42.80
2018-11-04T17:58:00.918Z,37.03
2018-11-04T18:02:05.041Z,35.87
2018-11-04T18:06:08.977Z,38.80
2018-11-04T18:10:13.837Z,39.33
2018-11-04T18:14:17.807Z,38.43
2018-11-04T18:18:21.696Z,38.70
2018-11-04T18:22:25.812Z,37.23
2018-11-04T18:26:29.822Z,39.80
2018-11-04T18:30:33.736Z,35.43
2018-11-04T18:34:37.666Z,35.33
2018-11-04T18:38:41.597Z,36.50
2018-11-04T18:42:45.887Z,37.57
2018-11-04T18:46:50.018Z,41.10
2018-11-04T18:50:53.906Z,36.95
2018-11-04T18:54:58.081Z,36.50
2018-11-04T18:59:02.037Z,37.83
2018-11-04T19:03:05.931Z,36.93
2018-11-04T19:07:10.259Z,38.77
2018-11-04T19:11:14.431Z,40.13
2018-11-04T19:15:18.272Z,40.60
2018-11-04T19:19:22.210Z,36.93
2018-11-04T19:23:26.488Z,38.43
2018-11-04T19:27:30.759Z,37.50
2018-11-04T19:31:34.722Z,39.17
2018-11-04T19:35:38.852Z,37.43
2018-11-04T19:39:42.846Z,38.55
2018-11-04T19:43:46.968Z,38.10
2018-11-04T19:47:50.947Z,39.50
2018-11-04T19:51:55.075Z,41.13
2018-11-04T19:55:59.000Z,36.17
2018-11-04T20:00:03.225Z,41.25
2018-11-04T20:04:07.282Z,38.83
2018-11-04T20:08:11.302Z,40.67
2018-11-04T20:12:20.532Z,42.03
2018-11-04T20:16:24.519Z,40.63
2018-11-04T20:20:28.460Z,39.50
2018-11-04T20:26:42.515Z,37.00
2018-11-04T20:30:46.442Z,36.77
2018-11-04T20:34:50.786Z,37.57
2018-11-04T20:39:00.202Z,40.67
2018-11-04T20:43:05.368Z,36.15
2018-11-04T20:47:10.089Z,40.90
2018-11-04T20:51:14.309Z,38.03
2018-11-04T20:55:18.574Z,35.87
2018-11-04T20:59:22.443Z,38.88
2018-11-04T21:03:27.668Z,39.33
2018-11-04T21:07:32.025Z,41.70
2018-11-04T21:11:36.227Z,40.63
2018-11-04T21:15:40.189Z,40.87
2018-11-04T21:19:44.268Z,38.17
2018-11-04T21:23:48.184Z,36.60
2018-11-04T21:27:52.082Z,39.20
2018-11-04T21:31:56.149Z,38.23
2018-11-04T21:36:00.077Z,39.83
2018-11-04T21:40:04.608Z,40.33
2018-11-04T21:44:08.760Z,40.98
2018-11-04T21:48:12.522Z,36.63
2018-11-04T21:52:16.579Z,32.63
2018-11-04T21:56:20.616Z,39.27
2018-11-04T22:00:24.742Z,38.90
2018-11-04T22:04:28.822Z,37.93
2018-11-04T22:08:32.769Z,36.68
2018-11-04T22:12:36.756Z,38.07
2018-11-04T22:16:40.883Z,37.17
2018-11-04T22:20:44.948Z,36.90
2018-11-04T22:24:48.897Z,33.60
2018-11-04T22:28:52.788Z,35.40
2018-11-04T22:32:56.758Z,36.48
2018-11-04T22:37:00.878Z,31.23
2018-11-04T22:41:04.999Z,37.23
2018-11-04T22:45:10.556Z,33.87
2018-11-04T22:49:14.485Z,32.83
2018-11-04T22:53:18.453Z,37.63
2018-11-04T22:57:23.016Z,34.70
2018-11-04T23:01:27.312Z,34.37
2018-11-04T23:05:31.247Z,37.43
2018-11-04T23:09:35.200Z,37.53
2018-11-04T23:13:39.278Z,32.53
2018-11-04T23:17:43.399Z,33.67
2018-11-04T23:21:48.022Z,35.10
2018-11-04T23:25:51.996Z,34.10
2018-11-04T23:29:56.339Z,35.20
2018-11-04T23:34:00.271Z,36.70
2018-11-04T23:38:05.116Z,36.50
2018-11-04T23:42:09.096Z,37.65
2018-11-04T23:46:13.059Z,40.03
2018-11-04T23:50:17.519Z,38.25
2018-11-04T23:54:21.380Z,36.13
2018-11-04T23:58:25.539Z,39.93
